Time;durP1;ratioP1;P1;durP2;ratioP2;P2;SDS_P1;SDS_P2;PMS_P1;PMS_P2;Temp;Humidity;BMP_temperature;BMP_pressure;BME280_temperature;BME280_humidity;BME280_pressure;Samples;Min_cycle;Max_cycle;Signal;HPM_P1;HPM_P2
2021/12/16 00:04:13;;;;;;;10.50;9.35;;;22.50;75.70;;;;;;6242962;28;82535;-61
2021/12/16 00:07:22;;;;;;;10.07;9.02;;;22.40;75.60;;;;;;6219902;28;83357;-60
2021/12/16 00:10:31;;;;;;;10.40;9.40;;;22.50;75.70;;;;;;6237480;28;85114;-60
2021/12/16 00:30:44;;;;;;;10.40;9.40;;;22.40;75.50;;;;;;6245503;27;82355;-60
2021/12/16 00:33:42;;;;;;;10.98;9.85;;;22.40;75.50;;;;;;6235657;28;82743;-60
2021/12/16 00:36:46;;;;;;;10.45;9.45;;;22.40;75.50;;;;;;6236225;28;83288;-60
2021/12/16 00:39:48;;;;;;;10.90;9.80;;;22.40;75.50;;;;;;6232676;28;84075;-61
2021/12/16 00:42:56;;;;;;;9.90;9.00;;;22.30;75.50;;;;;;6223458;28;84097;-60
2021/12/16 00:46:12;;;;;;;10.05;9.15;;;22.40;75.50;;;;;;6223439;28;83544;-60
2021/12/16 00:49:34;;;;;;;10.23;9.23;;;22.30;75.50;;;;;;6221802;28;84070;-60
2021/12/16 00:55:57;;;;;;;9.98;8.98;;;22.30;75.50;;;;;;6232907;28;83442;-60
2021/12/16 00:59:03;;;;;;;10.45;9.45;;;22.20;75.40;;;;;;6234514;28;84073;-60
2021/12/16 01:02:20;;;;;;;10.55;9.52;;;22.30;75.50;;;;;;6222786;28;84019;-60
2021/12/16 01:09:09;;;;;;;10.05;9.05;;;22.20;75.50;;;;;;6233700;27;83248;-60
2021/12/16 01:35:43;;;;;;;9.23;8.35;;;22.20;75.40;;;;;;6225328;28;82260;-60
2021/12/16 01:45:40;;;;;;;9.68;8.77;;;22.20;75.40;;;;;;6244292;28;85666;-60
2021/12/16 01:52:32;;;;;;;8.88;8.05;;;22.20;75.40;;;;;;6224214;28;82902;-60
2021/12/16 01:55:42;;;;;;;9.25;8.35;;;22.10;75.20;;;;;;6228024;28;84151;-60
2021/12/16 01:58:45;;;;;;;9.02;8.13;;;22.20;75.30;;;;;;6237661;28;83984;-60
2021/12/16 02:01:48;;;;;;;8.43;7.70;;;22.10;75.30;;;;;;6222457;28;84919;-60
2021/12/16 02:05:10;;;;;;;8.75;7.85;;;22.10;75.30;;;;;;6239393;28;84023;-60
2021/12/16 02:08:21;;;;;;;9.23;8.32;;;22.10;75.30;;;;;;6238103;28;83161;-60
2021/12/16 02:11:41;;;;;;;8.20;7.40;;;22.10;75.30;;;;;;6227721;28;84065;-60
2021/12/16 02:28:21;;;;;;;8.35;7.60;;;22.00;75.30;;;;;;6237768;28;82254;-60
2021/12/16 02:31:36;;;;;;;8.32;7.53;;;22.00;75.40;;;;;;6237721;28;84406;-60
2021/12/16 02:34:57;;;;;;;8.20;7.43;;;22.00;75.40;;;;;;6224415;28;85013;-60
2021/12/16 02:38:03;;;;;;;8.50;7.70;;;22.10;75.40;;;;;;6233819;28;84055;-60
2021/12/16 02:41:05;;;;;;;7.85;7.07;;;22.00;75.40;;;;;;6223546;28;85726;-60
2021/12/16 02:44:23;;;;;;;8.13;7.32;;;22.00;75.40;;;;;;6225306;28;83916;-60
2021/12/16 02:50:45;;;;;;;7.68;6.97;;;22.00;75.30;;;;;;6227064;28;82359;-60
2021/12/16 02:53:52;;;;;;;7.60;6.90;;;22.00;75.20;;;;;;6224635;28;84209;-60
2021/12/16 02:56:55;;;;;;;7.30;6.60;;;22.00;75.20;;;;;;6223426;28;83279;-60
2021/12/16 02:59:57;;;;;;;7.35;6.65;;;22.00;75.20;;;;;;6227206;28;84010;-60
2021/12/16 03:02:59;;;;;;;7.47;6.78;;;22.00;75.20;;;;;;6231282;28;83990;-60
2021/12/16 03:06:03;;;;;;;7.60;6.90;;;22.00;75.20;;;;;;6224354;28;84959;-60
2021/12/16 03:09:09;;;;;;;7.82;6.60;;;22.00;75.10;;;;;;6231350;28;84050;-60
2021/12/16 03:12:38;;;;;;;7.00;6.40;;;22.10;75.20;;;;;;6233204;28;83967;-60
2021/12/16 03:15:59;;;;;;;7.20;6.57;;;22.00;75.20;;;;;;6234321;28;82906;-60
2021/12/16 03:19:12;;;;;;;7.43;6.75;;;22.00;75.20;;;;;;6238716;28;84000;-60
2021/12/16 03:22:26;;;;;;;6.68;6.07;;;22.00;75.10;;;;;;6236734;27;84265;-60
2021/12/16 03:25:43;;;;;;;7.10;6.40;;;22.00;75.20;;;;;;6232637;28;84626;-60
2021/12/16 03:29:07;;;;;;;7.10;6.40;;;22.00;75.20;;;;;;6229712;28;83308;-59
2021/12/16 03:35:30;;;;;;;6.68;6.07;;;21.90;75.20;;;;;;6231936;28;82659;-60
2021/12/16 03:38:33;;;;;;;6.68;6.07;;;21.90;75.20;;;;;;6235595;28;84251;-60
2021/12/16 03:41:37;;;;;;;6.95;6.25;;;21.90;75.20;;;;;;6233155;28;84138;-60
2021/12/16 03:44:52;;;;;;;6.40;5.80;;;21.90;75.20;;;;;;6236258;28;84104;-60
2021/12/16 03:47:55;;;;;;;6.50;5.90;;;21.90;75.20;;;;;;6234313;28;83861;-60
2021/12/16 03:50:58;;;;;;;6.28;5.78;;;21.90;76.10;;;;;;6229060;28;82934;-60
2021/12/16 03:54:06;;;;;;;6.15;5.65;;;21.90;75.30;;;;;;6222640;28;84013;-60
2021/12/16 03:57:11;;;;;;;6.60;6.00;;;21.90;75.30;;;;;;6229375;28;84079;-60
2021/12/16 04:00:19;;;;;;;6.57;5.97;;;21.80;75.30;;;;;;6218238;28;83237;-60
2021/12/16 04:03:22;;;;;;;6.30;5.80;;;21.80;75.20;;;;;;6228129;28;84110;-60
2021/12/16 04:06:26;;;;;;;6.00;5.50;;;21.80;75.30;;;;;;6221384;28;82879;-60
2021/12/16 04:09:30;;;;;;;6.15;5.65;;;21.80;75.40;;;;;;6235803;28;84984;-60
2021/12/16 04:12:34;;;;;;;6.07;5.57;;;21.80;75.40;;;;;;6234307;28;84492;-60
2021/12/16 04:15:37;;;;;;;5.35;4.85;;;21.80;75.30;;;;;;6233542;28;84263;-60
2021/12/16 04:18:39;;;;;;;5.85;5.35;;;21.80;75.20;;;;;;6228724;28;82882;-60
2021/12/16 04:21:45;;;;;;;5.75;5.25;;;21.80;75.20;;;;;;6225485;27;84038;-60
2021/12/16 04:24:49;;;;;;;5.85;5.25;;;21.90;75.40;;;;;;6241445;28;84871;-60
2021/12/16 04:27:57;;;;;;;5.47;4.97;;;21.80;75.20;;;;;;6226653;28;84044;-60
2021/12/16 04:31:00;;;;;;;5.32;4.82;;;21.80;76.10;;;;;;6232224;28;83353;-60
2021/12/16 04:34:02;;;;;;;5.40;4.90;;;21.80;75.20;;;;;;6247962;28;82994;-60
2021/12/16 04:37:05;;;;;;;5.00;4.60;;;21.80;75.20;;;;;;6220459;28;83932;-60
2021/12/16 04:40:10;;;;;;;5.70;5.20;;;21.80;75.20;;;;;;6235450;28;83907;-60
2021/12/16 04:43:21;;;;;;;5.38;4.88;;;21.90;75.20;;;;;;6245379;28;84235;-60
2021/12/16 04:46:27;;;;;;;5.47;4.97;;;21.90;75.20;;;;;;6234789;27;83940;-60
2021/12/16 04:49:29;;;;;;;5.32;4.82;;;21.90;75.10;;;;;;6227435;28;82858;-60
2021/12/16 04:52:31;;;;;;;4.80;4.40;;;21.90;75.10;;;;;;6220739;28;84676;-60
2021/12/16 04:55:34;;;;;;;4.82;4.43;;;21.90;75.00;;;;;;6221906;28;84053;-60
2021/12/16 04:58:37;;;;;;;4.88;4.47;;;21.90;75.00;;;;;;6234472;28;82698;-60
2021/12/16 05:01:42;;;;;;;4.85;4.45;;;21.90;75.00;;;;;;6234209;28;83288;-60
2021/12/16 05:04:45;;;;;;;4.53;4.13;;;21.90;75.00;;;;;;6224065;28;84004;-60
2021/12/16 05:07:47;;;;;;;4.68;4.28;;;21.90;75.00;;;;;;6255706;27;83960;-60
2021/12/16 05:10:52;;;;;;;4.40;4.00;;;22.00;75.00;;;;;;6232784;28;84950;-60
2021/12/16 05:13:57;;;;;;;4.50;4.10;;;22.00;75.00;;;;;;6230052;28;83284;-60
2021/12/16 05:17:02;;;;;;;4.47;4.07;;;22.00;74.90;;;;;;6237515;27;83985;-60
2021/12/16 05:20:09;;;;;;;4.18;3.88;;;22.00;74.90;;;;;;6239844;27;84224;-60
2021/12/16 05:26:31;;;;;;;4.35;3.95;;;22.00;74.90;;;;;;6234977;28;82236;-60
2021/12/16 05:29:35;;;;;;;4.55;4.15;;;22.00;74.90;;;;;;6241062;28;84199;-60
2021/12/16 05:32:37;;;;;;;4.20;3.80;;;22.00;74.90;;;;;;6230346;27;83287;-60
2021/12/16 05:35:40;;;;;;;4.57;4.10;;;22.00;74.90;;;;;;6231395;28;84006;-62
2021/12/16 05:38:42;;;;;;;4.53;4.13;;;22.00;75.00;;;;;;6222473;28;84232;-63
2021/12/16 05:41:45;;;;;;;4.35;3.95;;;22.00;75.20;;;;;;6212543;28;84885;-62
2021/12/16 05:44:49;;;;;;;4.10;3.75;;;22.00;75.50;;;;;;6227991;28;84146;-62
2021/12/16 05:47:51;;;;;;;4.30;3.90;;;22.10;75.70;;;;;;6223344;28;83983;-63
2021/12/16 05:50:59;;;;;;;4.07;3.70;;;22.00;75.60;;;;;;6225610;28;82898;-60
2021/12/16 05:54:03;;;;;;;4.25;3.85;;;22.00;75.40;;;;;;6235695;28;83980;-60
2021/12/16 05:57:06;;;;;;;4.32;3.92;;;22.10;75.40;;;;;;6226056;28;84082;-60
2021/12/16 06:00:14;;;;;;;4.38;3.75;;;22.10;75.30;;;;;;6223666;28;84002;-60
2021/12/16 06:03:17;;;;;;;4.28;3.88;;;22.00;75.20;;;;;;6232356;28;83299;-60
2021/12/16 06:06:20;;;;;;;3.90;3.60;;;22.00;75.20;;;;;;6245073;27;84293;-60
2021/12/16 06:09:22;;;;;;;4.10;3.70;;;22.00;75.20;;;;;;6232018;28;84339;-60
2021/12/16 06:12:25;;;;;;;4.20;3.80;;;22.00;75.10;;;;;;6227085;28;84916;-60
2021/12/16 06:15:43;;;;;;;4.13;3.65;;;22.10;75.20;;;;;;6235664;28;84052;-60
2021/12/16 06:28:47;;;;;;;4.10;3.40;;;22.10;75.00;;;;;;6238184;28;82132;-60
2021/12/16 06:31:51;;;;;;;5.35;3.70;;;22.10;75.00;;;;;;6224028;28;83968;-60
2021/12/16 06:34:55;;;;;;;4.80;3.50;;;22.10;75.00;;;;;;6230860;28;83400;-61
2021/12/16 06:37:57;;;;;;;3.70;3.40;;;22.10;74.90;;;;;;6212679;28;83999;-60
2021/12/16 06:40:59;;;;;;;3.60;3.25;;;22.10;74.90;;;;;;6244620;28;84052;-60
2021/12/16 06:44:04;;;;;;;4.63;3.47;;;22.10;74.90;;;;;;6241818;28;85014;-60
2021/12/16 06:47:13;;;;;;;4.70;3.40;;;22.20;74.90;;;;;;6236367;27;84077;-60
2021/12/16 06:50:26;;;;;;;3.90;3.47;;;22.20;74.90;;;;;;6244481;27;84023;-60
2021/12/16 06:53:33;;;;;;;3.60;3.30;;;22.20;74.80;;;;;;6237848;28;84640;-60
2021/12/16 06:56:42;;;;;;;3.90;3.55;;;22.20;74.70;;;;;;6237176;28;83246;-60
2021/12/16 06:59:50;;;;;;;3.55;3.25;;;22.20;74.80;;;;;;6235243;28;84025;-60
2021/12/16 07:02:59;;;;;;;3.95;3.50;;;22.20;74.70;;;;;;6224538;28;84238;-60
2021/12/16 07:06:01;;;;;;;3.55;3.00;;;22.30;74.70;;;;;;6224599;28;82630;-60
2021/12/16 07:09:11;;;;;;;3.50;3.20;;;22.20;74.60;;;;;;6224430;28;84084;-61
2021/12/16 07:12:13;;;;;;;3.38;3.08;;;22.30;74.70;;;;;;6225501;28;84073;-60
2021/12/16 07:15:20;;;;;;;3.30;3.00;;;22.30;74.60;;;;;;6223594;28;84876;-60
2021/12/16 07:18:23;;;;;;;3.17;2.88;;;22.30;74.50;;;;;;6206158;28;84048;-60
2021/12/16 07:21:25;;;;;;;3.30;3.00;;;22.30;74.50;;;;;;6206740;28;84067;-60
2021/12/16 07:24:28;;;;;;;3.30;3.00;;;22.30;74.50;;;;;;6196191;28;84129;-60
2021/12/16 07:27:31;;;;;;;3.20;2.90;;;22.40;74.50;;;;;;6186995;28;85497;-60
2021/12/16 07:30:33;;;;;;;2.90;2.70;;;22.30;74.40;;;;;;6198890;28;84036;-60
2021/12/16 07:33:36;;;;;;;3.10;2.80;;;22.40;74.40;;;;;;6210780;28;83985;-60
2021/12/16 07:36:40;;;;;;;3.10;2.80;;;22.40;74.50;;;;;;6222227;28;81340;-60
2021/12/16 07:39:45;;;;;;;3.17;2.88;;;22.40;74.40;;;;;;6200366;28;84392;-60
2021/12/16 07:42:58;;;;;;;4.05;2.90;;;22.40;74.40;;;;;;6223040;28;82935;-60
2021/12/16 07:46:00;;;;;;;3.13;2.83;;;22.40;74.40;;;;;;6204933;28;85243;-60
2021/12/16 07:49:05;;;;;;;2.97;2.70;;;22.40;74.40;;;;;;6217379;28;84026;-60
2021/12/16 07:52:09;;;;;;;3.58;2.90;;;22.40;74.40;;;;;;6196749;28;82918;-60
2021/12/16 07:55:13;;;;;;;3.28;2.97;;;22.40;74.40;;;;;;6210622;28;83957;-60
2021/12/16 07:58:15;;;;;;;2.70;2.50;;;22.40;74.40;;;;;;6211303;28;84037;-60
2021/12/16 08:01:17;;;;;;;3.30;3.00;;;22.50;74.40;;;;;;6202943;28;84288;-60
2021/12/16 08:04:27;;;;;;;3.20;2.90;;;22.50;74.40;;;;;;6216851;28;83139;-60
2021/12/16 08:07:29;;;;;;;2.80;2.60;;;22.40;74.30;;;;;;6196804;28;82332;-60
2021/12/16 08:10:31;;;;;;;3.05;2.70;;;22.40;74.30;;;;;;6196517;28;84376;-60
2021/12/16 08:13:33;;;;;;;3.05;2.75;;;22.50;74.40;;;;;;6212706;28;84359;-60
2021/12/16 08:16:35;;;;;;;3.03;2.72;;;22.50;74.40;;;;;;6213938;28;84735;-60
2021/12/16 08:19:39;;;;;;;2.90;2.70;;;22.40;74.40;;;;;;6206539;28;84317;-60
2021/12/16 08:22:43;;;;;;;2.90;2.70;;;22.50;74.40;;;;;;6210353;28;83997;-60
2021/12/16 08:25:45;;;;;;;3.03;2.72;;;22.50;74.40;;;;;;6211819;28;83792;-60
2021/12/16 08:28:48;;;;;;;2.92;2.65;;;22.50;74.40;;;;;;6198979;28;84155;-60
2021/12/16 08:31:50;;;;;;;3.20;2.60;;;22.50;74.40;;;;;;6208228;28;84144;-60
2021/12/16 08:34:54;;;;;;;2.58;2.38;;;22.50;74.40;;;;;;6209691;28;84001;-60
2021/12/16 08:37:56;;;;;;;2.53;2.33;;;22.50;74.30;;;;;;6190489;28;83604;-60
2021/12/16 08:41:05;;;;;;;3.22;2.50;;;22.50;74.30;;;;;;6197296;28;84071;-60
2021/12/16 08:44:08;;;;;;;2.42;2.22;;;22.50;74.20;;;;;;6202158;28;83954;-60
2021/12/16 08:47:13;;;;;;;3.00;2.67;;;22.50;74.30;;;;;;6198944;28;84975;-60
2021/12/16 08:50:19;;;;;;;2.75;2.55;;;22.50;74.20;;;;;;6217181;28;82922;-60
2021/12/16 08:53:24;;;;;;;2.70;2.50;;;22.50;74.20;;;;;;6208615;28;84029;-60
2021/12/16 08:56:27;;;;;;;2.40;2.20;;;22.60;74.30;;;;;;6209213;28;83958;-60
2021/12/16 08:59:29;;;;;;;2.50;2.30;;;22.50;74.20;;;;;;6209798;28;82862;-60
2021/12/16 09:02:31;;;;;;;2.65;2.45;;;22.60;74.30;;;;;;6202603;28;84055;-60
2021/12/16 09:05:36;;;;;;;2.38;2.17;;;22.60;74.20;;;;;;6211989;28;84040;-60
2021/12/16 09:08:57;;;;;;;2.60;2.40;;;22.60;74.20;;;;;;6214933;28;83271;-60
2021/12/16 09:12:08;;;;;;;2.28;2.08;;;22.60;74.20;;;;;;6212041;28;83053;-60
2021/12/16 09:15:10;;;;;;;2.42;2.22;;;22.60;74.20;;;;;;6209867;28;83901;-60
2021/12/16 09:18:14;;;;;;;2.60;2.40;;;22.60;74.20;;;;;;6211862;28;84988;-60
2021/12/16 09:21:25;;;;;;;2.40;2.20;;;22.60;74.10;;;;;;6211698;28;84356;-60
2021/12/16 09:24:27;;;;;;;2.50;2.30;;;22.60;74.10;;;;;;6205122;28;84068;-60
2021/12/16 09:27:29;;;;;;;2.35;2.15;;;22.60;74.10;;;;;;6199503;28;84053;-60
2021/12/16 09:30:34;;;;;;;2.60;2.28;;;22.60;74.10;;;;;;6203111;28;84078;-60
2021/12/16 09:33:36;;;;;;;3.08;2.00;;;22.60;74.00;;;;;;6199967;28;84073;-60
2021/12/16 09:36:42;;;;;;;2.30;2.10;;;22.60;74.10;;;;;;6212909;28;83501;-60
2021/12/16 09:39:44;;;;;;;2.33;2.13;;;22.60;74.10;;;;;;6215252;28;83335;-60
2021/12/16 09:42:46;;;;;;;2.42;2.22;;;22.60;74.00;;;;;;6199312;28;83951;-60
2021/12/16 09:45:48;;;;;;;2.15;1.95;;;22.60;74.00;;;;;;6199565;28;83112;-60
2021/12/16 09:48:51;;;;;;;1.80;1.70;;;22.60;74.00;;;;;;6200416;28;84993;-60
2021/12/16 09:51:56;;;;;;;1.83;1.73;;;22.70;74.10;;;;;;6211748;28;84018;-60
2021/12/16 09:54:58;;;;;;;2.30;2.10;;;22.70;74.10;;;;;;6213192;28;84137;-60
2021/12/16 09:58:00;;;;;;;2.40;2.20;;;22.60;74.00;;;;;;6212093;28;83930;-60
2021/12/16 10:01:04;;;;;;;2.03;1.83;;;22.70;74.00;;;;;;6212521;28;84035;-60
2021/12/16 10:04:09;;;;;;;2.30;2.10;;;22.70;74.10;;;;;;6200662;28;83419;-60
2021/12/16 10:07:16;;;;;;;2.00;1.80;;;22.70;74.10;;;;;;6227334;28;84129;-60
2021/12/16 10:10:23;;;;;;;2.20;2.00;;;22.70;74.00;;;;;;6215041;28;83651;-60
2021/12/16 10:13:37;;;;;;;1.92;1.83;;;22.70;74.00;;;;;;6202883;28;83810;-60
2021/12/16 10:20:09;;;;;;;1.92;1.83;;;22.70;74.00;;;;;;6211267;28;83212;-60
2021/12/16 10:23:17;;;;;;;1.95;1.73;;;22.70;74.10;;;;;;6210392;28;84071;-60
2021/12/16 10:26:22;;;;;;;2.03;1.83;;;22.70;74.00;;;;;;6210195;28;83221;-60
2021/12/16 10:29:35;;;;;;;1.88;1.77;;;22.70;74.00;;;;;;6208595;28;84012;-60
2021/12/16 10:32:41;;;;;;;2.03;1.90;;;22.70;74.00;;;;;;6206704;28;83791;-61
2021/12/16 10:35:47;;;;;;;2.10;1.90;;;22.70;74.00;;;;;;6211020;28;84061;-60
2021/12/16 10:38:54;;;;;;;2.17;1.98;;;22.70;74.00;;;;;;6209284;28;84011;-60
2021/12/16 10:41:58;;;;;;;2.20;2.00;;;22.70;73.90;;;;;;6211456;28;83241;-60
2021/12/16 10:45:00;;;;;;;1.90;1.80;;;22.70;73.90;;;;;;6212067;28;84061;-60
2021/12/16 10:48:16;;;;;;;2.15;1.90;;;22.70;73.90;;;;;;6224597;28;84158;-60
2021/12/16 10:51:24;;;;;;;2.00;1.80;;;22.70;73.90;;;;;;6201063;28;84965;-60
2021/12/16 10:54:30;;;;;;;1.75;1.65;;;22.80;73.90;;;;;;6224595;28;84155;-61
2021/12/16 10:57:33;;;;;;;2.45;1.95;;;22.80;73.90;;;;;;6212784;28;83958;-60
2021/12/16 11:00:35;;;;;;;1.80;1.70;;;22.80;74.00;;;;;;6197817;28;83009;-60
2021/12/16 11:03:41;;;;;;;1.92;1.80;;;22.80;73.90;;;;;;6192199;28;84327;-60
2021/12/16 11:06:47;;;;;;;1.83;1.73;;;22.70;73.80;;;;;;6189779;28;83948;-60
2021/12/16 11:10:07;;;;;;;1.70;1.60;;;22.80;73.90;;;;;;6204826;28;83926;-60
2021/12/16 11:13:13;;;;;;;1.70;1.60;;;22.80;73.90;;;;;;6212210;28;83479;-60
2021/12/16 11:16:30;;;;;;;1.70;1.60;;;22.80;73.90;;;;;;6205033;28;84496;-60
2021/12/16 11:19:40;;;;;;;1.70;1.60;;;22.80;73.90;;;;;;6210544;28;84484;-60
2021/12/16 11:22:43;;;;;;;1.85;1.70;;;22.80;74.00;;;;;;6210236;28;84937;-60
2021/12/16 11:25:49;;;;;;;1.80;1.70;;;22.80;73.90;;;;;;6200214;28;84059;-60
2021/12/16 11:28:53;;;;;;;1.98;1.80;;;22.80;73.90;;;;;;6224599;28;83782;-60
2021/12/16 11:31:56;;;;;;;1.60;1.50;;;22.80;73.90;;;;;;6211117;28;84106;-60
2021/12/16 11:34:58;;;;;;;1.67;1.58;;;22.80;73.80;;;;;;6201709;28;84067;-60
2021/12/16 11:38:09;;;;;;;1.80;1.50;;;22.80;73.80;;;;;;6209424;28;84052;-60
2021/12/16 11:41:35;;;;;;;1.60;1.50;;;22.80;73.80;;;;;;6210631;28;83998;-60
2021/12/16 11:44:41;;;;;;;1.85;1.70;;;22.80;74.00;;;;;;6211463;28;83310;-60
2021/12/16 11:47:50;;;;;;;1.70;1.58;;;22.80;73.90;;;;;;6210354;28;84385;-60
2021/12/16 11:51:04;;;;;;;1.70;1.60;;;22.80;73.80;;;;;;6196639;28;84603;-60
2021/12/16 11:54:15;;;;;;;1.67;1.58;;;22.80;73.80;;;;;;6199493;28;83895;-60
2021/12/16 11:57:24;;;;;;;1.73;1.63;;;22.80;73.80;;;;;;6212507;28;82896;-60
2021/12/16 12:00:29;;;;;;;1.70;1.60;;;22.80;73.80;;;;;;6193185;28;84241;-60
2021/12/16 12:03:34;;;;;;;1.60;1.50;;;22.80;73.80;;;;;;6197590;28;83974;-60
2021/12/16 12:06:37;;;;;;;1.50;1.40;;;22.80;73.80;;;;;;6210095;28;84060;-60
2021/12/16 12:09:42;;;;;;;1.40;1.30;;;22.80;73.80;;;;;;6211256;28;82841;-60
2021/12/16 12:12:48;;;;;;;1.50;1.40;;;22.80;73.80;;;;;;6209312;28;83043;-60
2021/12/16 12:15:56;;;;;;;1.50;1.40;;;22.80;73.80;;;;;;6211902;28;83237;-60
2021/12/16 12:19:00;;;;;;;1.92;1.50;;;22.80;73.80;;;;;;6196106;28;84000;-60
2021/12/16 12:22:04;;;;;;;1.52;1.42;;;22.80;73.80;;;;;;6210070;28;84064;-60
2021/12/16 12:25:07;;;;;;;1.50;1.40;;;22.90;73.80;;;;;;6201799;28;85062;-60
2021/12/16 12:28:10;;;;;;;1.60;1.50;;;22.90;73.80;;;;;;6186016;28;83840;-60
2021/12/16 12:31:15;;;;;;;1.50;1.40;;;22.90;73.80;;;;;;6208446;28;84395;-61
2021/12/16 12:34:18;;;;;;;1.45;1.35;;;22.90;73.80;;;;;;6214791;28;84193;-60
2021/12/16 12:37:23;;;;;;;1.60;1.50;;;22.90;74.70;;;;;;6202153;28;83256;-61
2021/12/16 12:40:30;;;;;;;1.48;1.38;;;22.80;73.70;;;;;;6221693;28;84301;-60
2021/12/16 12:43:34;;;;;;;1.70;1.60;;;22.90;73.80;;;;;;6208860;28;84054;-60
2021/12/16 12:46:39;;;;;;;1.30;1.20;;;22.90;73.80;;;;;;6208913;28;83167;-60
2021/12/16 12:49:42;;;;;;;1.48;1.38;;;22.90;73.80;;;;;;6210046;28;83749;-60
2021/12/16 12:52:48;;;;;;;1.40;1.30;;;22.90;73.80;;;;;;6208942;28;82935;-61
2021/12/16 12:55:51;;;;;;;1.60;1.50;;;22.90;73.80;;;;;;6207180;28;85175;-61
2021/12/16 12:59:01;;;;;;;1.30;1.20;;;22.90;73.80;;;;;;6202901;28;84095;-60
2021/12/16 13:02:14;;;;;;;1.40;1.30;;;22.90;73.80;;;;;;6190834;28;83989;-60
2021/12/16 13:05:20;;;;;;;1.45;1.35;;;22.90;73.80;;;;;;6198592;28;84419;-61
2021/12/16 13:08:28;;;;;;;1.40;1.30;;;22.90;73.80;;;;;;6199111;28;84007;-60
2021/12/16 13:11:31;;;;;;;1.40;1.30;;;22.90;73.80;;;;;;6209007;28;84113;-60
2021/12/16 13:14:49;;;;;;;1.40;1.30;;;22.90;73.80;;;;;;6203871;28;84122;-60
2021/12/16 13:25:10;;;;;;;1.27;1.17;;;22.90;73.70;;;;;;6208524;28;82265;-60
2021/12/16 13:28:21;;;;;;;1.30;1.20;;;22.90;73.70;;;;;;6194301;28;85005;-60
2021/12/16 13:31:53;;;;;;;1.60;1.30;;;22.90;73.70;;;;;;6208223;28;84181;-60
2021/12/16 13:35:03;;;;;;;1.20;1.10;;;22.90;73.80;;;;;;6188371;28;84083;-60
2021/12/16 13:38:08;;;;;;;1.50;1.40;;;22.90;74.70;;;;;;6185647;28;84543;-60
2021/12/16 13:41:14;;;;;;;1.20;1.10;;;22.90;73.70;;;;;;6217713;28;83968;-60
2021/12/16 13:44:16;;;;;;;1.30;1.20;;;22.90;73.70;;;;;;6194972;28;84379;-60
2021/12/16 13:47:40;;;;;;;1.20;1.10;;;22.90;73.70;;;;;;6223367;28;84025;-60
2021/12/16 14:04:38;;;;;;;1.30;1.20;;;22.90;73.60;;;;;;6225650;28;82278;-60
2021/12/16 14:07:55;;;;;;;1.30;1.20;;;22.90;73.60;;;;;;6197134;28;84177;-61
2021/12/16 14:11:00;;;;;;;1.40;1.30;;;22.90;73.60;;;;;;6189091;28;83213;-60
2021/12/16 14:17:58;;;;;;;1.30;1.20;;;22.90;74.50;;;;;;6192422;28;82855;-60
2021/12/16 14:25:02;;;;;;;1.90;1.30;;;22.90;73.70;;;;;;6205595;28;81200;-61
2021/12/16 14:34:59;;;;;;;1.42;1.20;;;23.00;74.00;;;;;;6166247;28;83567;-61
2021/12/16 14:38:10;;;;;;;3.35;1.27;;;23.00;74.10;;;;;;6200692;28;83997;-62
2021/12/16 14:41:39;;;;;;;1.40;1.05;;;23.00;74.10;;;;;;6202207;28;84331;-61
2021/12/16 14:48:22;;;;;;;2.67;1.20;;;23.00;74.10;;;;;;6201700;28;82172;-61
2021/12/16 14:51:24;;;;;;;1.98;1.20;;;23.00;74.20;;;;;;6206740;28;83741;-61
2021/12/16 14:54:30;;;;;;;2.25;1.15;;;23.00;74.10;;;;;;6207468;28;86200;-61
2021/12/16 14:57:36;;;;;;;3.05;1.30;;;23.00;74.20;;;;;;6205467;28;82374;-61
2021/12/16 15:00:43;;;;;;;1.80;1.20;;;23.00;74.10;;;;;;6203572;28;83068;-62
2021/12/16 15:03:50;;;;;;;1.42;1.33;;;23.00;74.20;;;;;;6199830;28;84062;-62
2021/12/16 15:06:58;;;;;;;1.27;1.17;;;23.00;74.10;;;;;;6213772;28;85130;-63
2021/12/16 15:10:05;;;;;;;1.33;0.93;;;23.00;74.00;;;;;;6205129;28;83581;-61
2021/12/16 15:13:14;;;;;;;2.53;1.40;;;23.00;74.00;;;;;;6203687;28;84060;-61
2021/12/16 15:16:40;;;;;;;1.42;1.20;;;23.10;74.00;;;;;;6205706;28;83186;-61
2021/12/16 15:37:11;;;;;;;1.92;1.20;;;23.10;73.80;;;;;;6202625;28;82683;-61
2021/12/16 15:40:30;;;;;;;1.60;1.08;;;23.10;73.80;;;;;;6205813;28;85479;-61
2021/12/16 15:43:36;;;;;;;1.65;1.15;;;23.10;73.80;;;;;;6220154;28;84441;-61
2021/12/16 15:46:39;;;;;;;1.30;1.20;;;23.10;73.80;;;;;;6212071;28;83771;-61
2021/12/16 15:49:41;;;;;;;1.52;1.20;;;23.10;73.80;;;;;;6205658;28;82926;-62
2021/12/16 15:52:45;;;;;;;1.83;1.15;;;23.10;73.90;;;;;;6207283;28;83989;-61
2021/12/16 15:55:50;;;;;;;1.48;1.20;;;23.10;73.80;;;;;;6206123;28;84262;-61
2021/12/16 15:58:56;;;;;;;1.95;1.13;;;23.10;73.80;;;;;;6206496;28;84120;-61
2021/12/16 16:02:00;;;;;;;1.83;1.00;;;23.10;73.80;;;;;;6205867;28;83329;-61
2021/12/16 16:05:03;;;;;;;1.45;1.30;;;23.10;73.80;;;;;;6207032;28;83959;-61
2021/12/16 16:08:09;;;;;;;1.70;1.30;;;23.10;73.80;;;;;;6188248;28;84057;-61
2021/12/16 16:11:15;;;;;;;1.48;1.20;;;23.10;73.80;;;;;;6210449;28;85115;-61
2021/12/16 16:14:20;;;;;;;1.30;1.20;;;23.10;73.90;;;;;;6202050;28;84093;-61
2021/12/16 16:17:24;;;;;;;1.30;1.20;;;23.10;73.90;;;;;;6211803;28;84017;-61
2021/12/16 16:20:30;;;;;;;1.75;1.30;;;23.10;73.90;;;;;;6222356;28;84122;-61
2021/12/16 16:23:34;;;;;;;1.40;1.30;;;23.10;73.90;;;;;;6202423;28;82972;-61
2021/12/16 16:26:39;;;;;;;1.55;1.30;;;23.10;73.80;;;;;;6205890;28;84101;-61
2021/12/16 16:29:45;;;;;;;2.05;1.30;;;23.10;73.80;;;;;;6196411;28;84092;-61
2021/12/16 16:33:07;;;;;;;2.03;1.40;;;23.10;73.80;;;;;;6209541;28;83503;-61
2021/12/16 16:36:13;;;;;;;1.30;1.13;;;23.10;73.80;;;;;;6214885;28;84010;-61
2021/12/16 16:39:18;;;;;;;1.80;1.30;;;23.10;73.70;;;;;;6206757;28;82900;-61
2021/12/16 16:42:23;;;;;;;1.40;1.10;;;23.10;73.60;;;;;;6212625;28;83831;-61
2021/12/16 16:45:31;;;;;;;1.73;1.27;;;23.10;73.60;;;;;;6202066;28;84062;-61
2021/12/16 16:52:06;;;;;;;2.15;1.20;;;23.20;73.50;;;;;;6193104;28;82795;-61
2021/12/16 16:55:11;;;;;;;1.40;1.25;;;23.20;73.60;;;;;;6208108;28;84063;-62
2021/12/16 16:58:16;;;;;;;1.55;1.20;;;23.10;73.50;;;;;;6196542;28;84032;-61
2021/12/16 17:01:19;;;;;;;2.88;1.40;;;23.10;73.50;;;;;;6209631;28;82972;-62
2021/12/16 17:04:21;;;;;;;1.40;1.27;;;23.20;73.60;;;;;;6208884;28;83951;-61
2021/12/16 17:07:24;;;;;;;2.25;1.55;;;23.20;73.50;;;;;;6209387;28;84048;-62
2021/12/16 17:10:32;;;;;;;2.63;1.25;;;23.10;73.20;;;;;;6199026;28;84065;-61
2021/12/16 17:13:41;;;;;;;2.47;1.38;;;23.20;73.10;;;;;;6207149;28;84648;-61
2021/12/16 17:20:13;;;;;;;2.33;1.25;;;23.20;73.50;;;;;;6196028;28;82408;-62
2021/12/16 17:23:15;;;;;;;3.83;1.40;;;23.20;73.50;;;;;;6213797;28;82919;-61
2021/12/16 17:26:23;;;;;;;6.30;1.50;;;23.10;73.60;;;;;;6202066;28;82978;-61
2021/12/16 17:29:28;;;;;;;2.28;1.33;;;23.10;73.60;;;;;;6201177;28;84270;-61
2021/12/16 17:32:33;;;;;;;3.40;1.40;;;23.10;73.60;;;;;;6215007;28;85415;-61
2021/12/16 17:35:39;;;;;;;2.10;1.30;;;23.20;73.60;;;;;;6219242;28;83267;-61
2021/12/16 17:38:41;;;;;;;2.17;1.40;;;23.20;73.60;;;;;;6211985;28;84027;-61
2021/12/16 17:41:52;;;;;;;2.78;1.55;;;23.20;73.60;;;;;;6213563;28;84085;-61
2021/12/16 17:44:57;;;;;;;4.03;1.50;;;23.20;73.60;;;;;;6210938;28;84963;-61
2021/12/16 17:48:06;;;;;;;4.20;1.65;;;23.10;73.60;;;;;;6220390;28;82946;-61
2021/12/16 17:51:11;;;;;;;2.88;1.20;;;23.20;73.60;;;;;;6220491;28;82941;-61
2021/12/16 17:54:14;;;;;;;3.67;1.50;;;23.10;73.50;;;;;;6215383;28;84137;-61
2021/12/16 17:57:24;;;;;;;1.63;1.40;;;23.20;73.60;;;;;;6213696;28;84452;-62
2021/12/16 18:00:31;;;;;;;2.42;1.45;;;23.20;73.60;;;;;;6214215;28;84053;-61
2021/12/16 18:03:39;;;;;;;1.65;1.45;;;23.20;73.60;;;;;;6226683;28;83944;-61
2021/12/16 18:06:44;;;;;;;1.88;1.42;;;23.20;73.50;;;;;;6213604;28;83340;-61
2021/12/16 18:09:48;;;;;;;3.38;1.45;;;23.20;73.50;;;;;;6212460;28;83273;-61
2021/12/16 18:12:51;;;;;;;3.13;1.67;;;23.20;73.50;;;;;;6209984;28;83872;-61
2021/12/16 18:15:53;;;;;;;3.88;1.63;;;23.20;73.40;;;;;;6212940;28;84998;-61
2021/12/16 18:19:00;;;;;;;2.60;1.83;;;23.20;73.50;;;;;;6208697;28;85366;-61
2021/12/16 18:22:05;;;;;;;2.88;1.50;;;23.20;73.70;;;;;;6205978;28;83888;-61
2021/12/16 18:25:11;;;;;;;2.13;1.67;;;23.30;74.40;;;;;;6221245;28;83209;-61
2021/12/16 18:28:16;;;;;;;1.65;1.50;;;23.30;74.70;;;;;;6217324;28;84882;-61
2021/12/16 18:31:23;;;;;;;2.63;1.90;;;23.30;74.90;;;;;;6215209;28;84443;-63
2021/12/16 18:34:29;;;;;;;4.22;1.70;;;23.30;74.90;;;;;;6206934;28;84088;-61
2021/12/16 18:37:32;;;;;;;2.33;1.70;;;23.30;74.90;;;;;;6212392;28;82538;-61
2021/12/16 18:40:37;;;;;;;2.33;1.70;;;23.30;74.90;;;;;;6206953;28;84136;-61
2021/12/16 18:43:41;;;;;;;1.88;1.67;;;23.30;74.90;;;;;;6204724;28;84113;-62
2021/12/16 18:46:43;;;;;;;3.67;1.60;;;23.30;74.80;;;;;;6218340;28;85266;-62
2021/12/16 18:49:49;;;;;;;2.35;1.60;;;23.30;74.70;;;;;;6216075;28;82974;-60